Paso Robles Municipal Airport Paso Robles US
ICAO: KPRB
IATA: PRB
Category: Medium
Scheduled Services: No

Elevation: 840 ft
TransAlt. 18000 ft.

Airport Communications:
ASOS:132.175
OAKLAND CNTR:128.7
HAWTHORNE RDO:122.4
CTAF/UNICOM:123

KPRB Zoom In..

If you have problems with the map follow the link
https://www.worldairports.se/pages/airport.php?
ICAO=KPRB

Runways:

(A) RW 01 length 6008 ft width 150 ft
---- / hdg 14

(B) RW 13 length 4701 ft width 100 ft
---- / hdg 129

(C) RW 19 length 6008 ft width 150 ft
---- / hdg 194

(D) RW 31 length 4701 ft width 100 ft
---- / hdg 309

Location; KPRB
Day. 19 / Time. 21.53 Zulu
* Altimeter: 29.85
* Temperature: 14° c. 57.2°f.
* Wind from: 230° Speed 12 kn.
Dewpoint: 10° c.
Visibility: 10 Statute Miles.
Clouds: Few 2800 ft.
Clouds: Broken 4200 ft.
Clouds: Overcast 6000 ft.

KPRB 192153Z AUTO 23012KT 10SM FEW028 BKN042 OVC060 14/10 A2985 RMK AO2 RAE2059 SLP106 P0000 T01440100


Wind From 230°
Speed 12 kn.

 
 
jpsmedia.com for Web Design worldairports.se 2019   terms of use